sensor_id;sensor_type;location;lat;lon;timestamp;temperature;humidity
36450;DHT22;22475;51.390;7.180;2023-04-24T00:01:00;15.30;90.30
36450;DHT22;22475;51.390;7.180;2023-04-24T00:03:28;15.40;90.30
36450;DHT22;22475;51.390;7.180;2023-04-24T00:05:55;15.40;90.30
36450;DHT22;22475;51.390;7.180;2023-04-24T00:08:22;15.30;90.30
36450;DHT22;22475;51.390;7.180;2023-04-24T00:10:49;15.30;90.30
36450;DHT22;22475;51.390;7.180;2023-04-24T00:13:17;15.30;90.30
36450;DHT22;22475;51.390;7.180;2023-04-24T00:15:44;15.30;90.20
36450;DHT22;22475;51.390;7.180;2023-04-24T00:18:11;15.30;90.10
36450;DHT22;22475;51.390;7.180;2023-04-24T00:20:39;15.30;90.10
36450;DHT22;22475;51.390;7.180;2023-04-24T00:23:06;15.30;90.10
36450;DHT22;22475;51.390;7.180;2023-04-24T00:25:32;15.30;90.10
36450;DHT22;22475;51.390;7.180;2023-04-24T00:27:59;15.30;90.10
36450;DHT22;22475;51.390;7.180;2023-04-24T00:30:26;15.30;90.10
36450;DHT22;22475;51.390;7.180;2023-04-24T00:32:53;15.30;90.10
36450;DHT22;22475;51.390;7.180;2023-04-24T00:35:19;15.30;90.10
36450;DHT22;22475;51.390;7.180;2023-04-24T00:37:48;15.30;90.10
36450;DHT22;22475;51.390;7.180;2023-04-24T00:40:15;15.30;90.10
36450;DHT22;22475;51.390;7.180;2023-04-24T00:42:42;15.30;90.10
36450;DHT22;22475;51.390;7.180;2023-04-24T00:45:10;15.30;90.10
36450;DHT22;22475;51.390;7.180;2023-04-24T00:47:37;15.30;90.10
36450;DHT22;22475;51.390;7.180;2023-04-24T00:50:05;15.30;90.00
36450;DHT22;22475;51.390;7.180;2023-04-24T00:52:32;15.30;90.00
36450;DHT22;22475;51.390;7.180;2023-04-24T00:55:00;15.30;90.10
36450;DHT22;22475;51.390;7.180;2023-04-24T00:57:27;15.30;90.10
36450;DHT22;22475;51.390;7.180;2023-04-24T00:59:54;15.30;90.10
36450;DHT22;22475;51.390;7.180;2023-04-24T01:02:22;15.30;90.10
36450;DHT22;22475;51.390;7.180;2023-04-24T01:04:50;15.20;90.00
36450;DHT22;22475;51.390;7.180;2023-04-24T01:07:19;15.20;90.00
36450;DHT22;22475;51.390;7.180;2023-04-24T01:09:48;15.30;90.10
36450;DHT22;22475;51.390;7.180;2023-04-24T01:12:17;15.30;90.10
36450;DHT22;22475;51.390;7.180;2023-04-24T01:14:45;15.30;90.10
36450;DHT22;22475;51.390;7.180;2023-04-24T01:17:12;15.30;90.00
36450;DHT22;22475;51.390;7.180;2023-04-24T01:19:38;15.20;90.00
36450;DHT22;22475;51.390;7.180;2023-04-24T01:22:10;15.20;90.00
36450;DHT22;22475;51.390;7.180;2023-04-24T01:24:38;15.20;90.00
36450;DHT22;22475;51.390;7.180;2023-04-24T01:27:05;15.20;89.80
36450;DHT22;22475;51.390;7.180;2023-04-24T01:29:32;15.20;89.70
36450;DHT22;22475;51.390;7.180;2023-04-24T01:31:59;15.20;89.60
36450;DHT22;22475;51.390;7.180;2023-04-24T01:34:25;15.20;89.70
36450;DHT22;22475;51.390;7.180;2023-04-24T01:36:52;15.20;89.90
36450;DHT22;22475;51.390;7.180;2023-04-24T01:39:20;15.20;89.80
36450;DHT22;22475;51.390;7.180;2023-04-24T01:41:48;15.20;89.50
36450;DHT22;22475;51.390;7.180;2023-04-24T01:44:16;15.20;89.40
36450;DHT22;22475;51.390;7.180;2023-04-24T01:46:43;15.20;89.40
36450;DHT22;22475;51.390;7.180;2023-04-24T01:49:10;15.20;89.50
36450;DHT22;22475;51.390;7.180;2023-04-24T01:51:37;15.20;89.40
36450;DHT22;22475;51.390;7.180;2023-04-24T01:54:04;15.20;89.40
36450;DHT22;22475;51.390;7.180;2023-04-24T01:56:33;15.30;89.40
36450;DHT22;22475;51.390;7.180;2023-04-24T01:59:02;15.20;89.40
36450;DHT22;22475;51.390;7.180;2023-04-24T02:01:34;15.20;89.50
36450;DHT22;22475;51.390;7.180;2023-04-24T02:04:01;15.20;89.60
36450;DHT22;22475;51.390;7.180;2023-04-24T02:06:28;15.20;89.70
36450;DHT22;22475;51.390;7.180;2023-04-24T02:08:57;15.20;89.70
36450;DHT22;22475;51.390;7.180;2023-04-24T02:11:24;15.10;89.70
36450;DHT22;22475;51.390;7.180;2023-04-24T02:13:52;15.20;89.70
36450;DHT22;22475;51.390;7.180;2023-04-24T02:16:19;15.20;89.70
36450;DHT22;22475;51.390;7.180;2023-04-24T02:18:45;15.10;89.60
36450;DHT22;22475;51.390;7.180;2023-04-24T02:21:12;15.20;89.80
36450;DHT22;22475;51.390;7.180;2023-04-24T02:23:39;15.10;90.20
36450;DHT22;22475;51.390;7.180;2023-04-24T02:26:06;15.20;89.80
36450;DHT22;22475;51.390;7.180;2023-04-24T02:28:32;15.10;89.70
36450;DHT22;22475;51.390;7.180;2023-04-24T02:31:01;15.10;89.70
36450;DHT22;22475;51.390;7.180;2023-04-24T02:33:27;15.10;89.80
36450;DHT22;22475;51.390;7.180;2023-04-24T02:35:54;15.10;89.90
36450;DHT22;22475;51.390;7.180;2023-04-24T02:38:21;15.10;89.90
36450;DHT22;22475;51.390;7.180;2023-04-24T02:40:48;15.10;89.80
36450;DHT22;22475;51.390;7.180;2023-04-24T02:43:14;15.10;89.90
36450;DHT22;22475;51.390;7.180;2023-04-24T02:45:41;15.10;90.00
36450;DHT22;22475;51.390;7.180;2023-04-24T02:48:09;15.10;90.00
36450;DHT22;22475;51.390;7.180;2023-04-24T02:50:36;15.10;90.00
36450;DHT22;22475;51.390;7.180;2023-04-24T02:53:03;15.20;90.00
36450;DHT22;22475;51.390;7.180;2023-04-24T02:55:29;15.20;90.00
36450;DHT22;22475;51.390;7.180;2023-04-24T02:57:56;15.10;90.00
36450;DHT22;22475;51.390;7.180;2023-04-24T03:00:23;15.10;90.00
36450;DHT22;22475;51.390;7.180;2023-04-24T03:02:50;15.20;90.00
36450;DHT22;22475;51.390;7.180;2023-04-24T03:05:18;15.20;90.10
36450;DHT22;22475;51.390;7.180;2023-04-24T03:07:45;15.10;90.00
36450;DHT22;22475;51.390;7.180;2023-04-24T03:10:12;15.10;90.00
36450;DHT22;22475;51.390;7.180;2023-04-24T03:12:39;15.10;90.00
36450;DHT22;22475;51.390;7.180;2023-04-24T03:15:07;15.20;90.10
36450;DHT22;22475;51.390;7.180;2023-04-24T03:17:33;15.10;90.00
36450;DHT22;22475;51.390;7.180;2023-04-24T03:20:00;15.10;90.00
36450;DHT22;22475;51.390;7.180;2023-04-24T03:22:29;15.10;90.00
36450;DHT22;22475;51.390;7.180;2023-04-24T03:24:57;15.10;90.10
36450;DHT22;22475;51.390;7.180;2023-04-24T03:27:24;15.20;90.10
36450;DHT22;22475;51.390;7.180;2023-04-24T03:29:51;15.20;90.10
36450;DHT22;22475;51.390;7.180;2023-04-24T03:32:20;15.20;90.10
36450;DHT22;22475;51.390;7.180;2023-04-24T03:34:47;15.10;90.10
36450;DHT22;22475;51.390;7.180;2023-04-24T03:37:14;15.10;90.10
36450;DHT22;22475;51.390;7.180;2023-04-24T03:39:42;15.10;90.10
36450;DHT22;22475;51.390;7.180;2023-04-24T03:42:10;15.20;90.10
36450;DHT22;22475;51.390;7.180;2023-04-24T03:44:36;15.10;90.10
36450;DHT22;22475;51.390;7.180;2023-04-24T03:47:03;15.10;90.10
36450;DHT22;22475;51.390;7.180;2023-04-24T03:49:30;15.10;90.10
36450;DHT22;22475;51.390;7.180;2023-04-24T03:51:57;15.10;90.10
36450;DHT22;22475;51.390;7.180;2023-04-24T03:54:23;15.10;90.10
36450;DHT22;22475;51.390;7.180;2023-04-24T03:56:52;15.10;90.00
36450;DHT22;22475;51.390;7.180;2023-04-24T03:59:18;15.10;90.10
36450;DHT22;22475;51.390;7.180;2023-04-24T04:01:45;15.10;90.10
36450;DHT22;22475;51.390;7.180;2023-04-24T04:04:12;15.10;90.10
36450;DHT22;22475;51.390;7.180;2023-04-24T04:06:39;15.10;90.10
36450;DHT22;22475;51.390;7.180;2023-04-24T04:09:05;15.10;90.10
36450;DHT22;22475;51.390;7.180;2023-04-24T04:11:32;15.10;90.10
36450;DHT22;22475;51.390;7.180;2023-04-24T04:14:02;15.10;90.10
36450;DHT22;22475;51.390;7.180;2023-04-24T04:16:29;15.10;90.10
36450;DHT22;22475;51.390;7.180;2023-04-24T04:18:55;15.10;90.10
36450;DHT22;22475;51.390;7.180;2023-04-24T04:21:22;15.10;90.10
36450;DHT22;22475;51.390;7.180;2023-04-24T04:23:49;15.10;90.10
36450;DHT22;22475;51.390;7.180;2023-04-24T04:26:16;15.10;90.10
36450;DHT22;22475;51.390;7.180;2023-04-24T04:28:44;15.10;90.10
36450;DHT22;22475;51.390;7.180;2023-04-24T04:31:12;15.10;90.00
36450;DHT22;22475;51.390;7.180;2023-04-24T04:33:39;15.10;90.00
36450;DHT22;22475;51.390;7.180;2023-04-24T04:36:06;15.10;90.00
36450;DHT22;22475;51.390;7.180;2023-04-24T04:38:34;15.00;90.30
36450;DHT22;22475;51.390;7.180;2023-04-24T04:41:00;15.10;90.00
36450;DHT22;22475;51.390;7.180;2023-04-24T04:43:27;15.10;90.00
36450;DHT22;22475;51.390;7.180;2023-04-24T04:45:54;15.10;89.70
36450;DHT22;22475;51.390;7.180;2023-04-24T04:48:22;15.10;89.70
36450;DHT22;22475;51.390;7.180;2023-04-24T04:50:49;15.00;89.70
36450;DHT22;22475;51.390;7.180;2023-04-24T04:53:16;15.00;89.70
36450;DHT22;22475;51.390;7.180;2023-04-24T04:55:43;15.00;89.80
36450;DHT22;22475;51.390;7.180;2023-04-24T04:58:10;15.00;89.80
36450;DHT22;22475;51.390;7.180;2023-04-24T05:00:36;15.00;89.80
36450;DHT22;22475;51.390;7.180;2023-04-24T05:03:03;15.00;89.80
36450;DHT22;22475;51.390;7.180;2023-04-24T05:05:31;15.00;89.90
36450;DHT22;22475;51.390;7.180;2023-04-24T05:07:58;15.00;90.00
36450;DHT22;22475;51.390;7.180;2023-04-24T05:10:25;15.00;90.00
36450;DHT22;22475;51.390;7.180;2023-04-24T05:12:52;15.00;89.90
36450;DHT22;22475;51.390;7.180;2023-04-24T05:15:18;15.00;90.00
36450;DHT22;22475;51.390;7.180;2023-04-24T05:17:45;15.00;90.00
36450;DHT22;22475;51.390;7.180;2023-04-24T05:20:12;15.00;89.90
36450;DHT22;22475;51.390;7.180;2023-04-24T05:22:40;15.00;90.30
36450;DHT22;22475;51.390;7.180;2023-04-24T05:25:07;15.00;90.00
36450;DHT22;22475;51.390;7.180;2023-04-24T05:27:34;15.00;90.00
36450;DHT22;22475;51.390;7.180;2023-04-24T05:30:01;15.00;90.00
36450;DHT22;22475;51.390;7.180;2023-04-24T05:32:27;15.00;89.80
36450;DHT22;22475;51.390;7.180;2023-04-24T05:34:54;15.00;89.60
36450;DHT22;22475;51.390;7.180;2023-04-24T05:37:21;15.00;89.50
36450;DHT22;22475;51.390;7.180;2023-04-24T05:39:49;15.00;89.50
36450;DHT22;22475;51.390;7.180;2023-04-24T05:42:16;15.00;89.50
36450;DHT22;22475;51.390;7.180;2023-04-24T05:44:43;14.90;89.40
36450;DHT22;22475;51.390;7.180;2023-04-24T05:47:10;14.90;89.40
36450;DHT22;22475;51.390;7.180;2023-04-24T05:49:36;14.90;90.10
36450;DHT22;22475;51.390;7.180;2023-04-24T05:52:03;14.80;89.50
36450;DHT22;22475;51.390;7.180;2023-04-24T05:54:31;14.90;89.50
36450;DHT22;22475;51.390;7.180;2023-04-24T05:56:59;14.80;89.40
36450;DHT22;22475;51.390;7.180;2023-04-24T05:59:29;14.80;89.50
36450;DHT22;22475;51.390;7.180;2023-04-24T06:01:56;14.80;89.50
36450;DHT22;22475;51.390;7.180;2023-04-24T06:04:23;14.80;89.50
36450;DHT22;22475;51.390;7.180;2023-04-24T06:06:50;14.70;89.50
36450;DHT22;22475;51.390;7.180;2023-04-24T06:09:21;14.80;89.60
36450;DHT22;22475;51.390;7.180;2023-04-24T06:11:48;14.70;89.50
36450;DHT22;22475;51.390;7.180;2023-04-24T06:14:16;14.70;89.60
36450;DHT22;22475;51.390;7.180;2023-04-24T06:16:43;14.70;89.70
36450;DHT22;22475;51.390;7.180;2023-04-24T06:19:12;14.70;89.70
36450;DHT22;22475;51.390;7.180;2023-04-24T06:21:38;14.70;89.70
36450;DHT22;22475;51.390;7.180;2023-04-24T06:24:05;14.70;89.70
36450;DHT22;22475;51.390;7.180;2023-04-24T06:26:32;14.70;89.80
36450;DHT22;22475;51.390;7.180;2023-04-24T06:28:59;14.70;89.80
36450;DHT22;22475;51.390;7.180;2023-04-24T06:31:27;14.60;89.70
36450;DHT22;22475;51.390;7.180;2023-04-24T06:33:54;14.60;89.80
36450;DHT22;22475;51.390;7.180;2023-04-24T06:36:20;14.60;89.80
36450;DHT22;22475;51.390;7.180;2023-04-24T06:38:47;14.60;89.90
36450;DHT22;22475;51.390;7.180;2023-04-24T06:41:14;14.60;89.90
36450;DHT22;22475;51.390;7.180;2023-04-24T06:43:41;14.60;89.90
36450;DHT22;22475;51.390;7.180;2023-04-24T06:46:07;14.60;89.90
36450;DHT22;22475;51.390;7.180;2023-04-24T06:48:36;14.60;90.00
36450;DHT22;22475;51.390;7.180;2023-04-24T06:51:02;14.60;90.00
36450;DHT22;22475;51.390;7.180;2023-04-24T06:53:29;14.60;90.10
36450;DHT22;22475;51.390;7.180;2023-04-24T06:55:56;14.60;90.10
36450;DHT22;22475;51.390;7.180;2023-04-24T06:58:23;14.60;90.10
36450;DHT22;22475;51.390;7.180;2023-04-24T07:00:50;14.60;90.10
36450;DHT22;22475;51.390;7.180;2023-04-24T07:03:17;14.60;90.20
36450;DHT22;22475;51.390;7.180;2023-04-24T07:05:45;14.60;90.20
36450;DHT22;22475;51.390;7.180;2023-04-24T07:08:16;14.60;90.20
36450;DHT22;22475;51.390;7.180;2023-04-24T07:10:44;14.60;90.30
36450;DHT22;22475;51.390;7.180;2023-04-24T07:13:10;14.60;90.30
36450;DHT22;22475;51.390;7.180;2023-04-24T07:15:37;14.60;90.30
36450;DHT22;22475;51.390;7.180;2023-04-24T07:18:05;14.60;90.30
36450;DHT22;22475;51.390;7.180;2023-04-24T07:20:32;14.60;90.30
36450;DHT22;22475;51.390;7.180;2023-04-24T07:23:00;14.60;90.30
36450;DHT22;22475;51.390;7.180;2023-04-24T07:25:27;14.60;90.30
36450;DHT22;22475;51.390;7.180;2023-04-24T07:27:54;14.50;90.30
36450;DHT22;22475;51.390;7.180;2023-04-24T07:30:21;14.50;90.30
36450;DHT22;22475;51.390;7.180;2023-04-24T07:32:47;14.50;90.30
36450;DHT22;22475;51.390;7.180;2023-04-24T07:35:14;14.50;90.30
36450;DHT22;22475;51.390;7.180;2023-04-24T07:37:41;14.50;90.30
36450;DHT22;22475;51.390;7.180;2023-04-24T07:40:12;14.50;90.30
36450;DHT22;22475;51.390;7.180;2023-04-24T07:42:39;14.50;90.30
36450;DHT22;22475;51.390;7.180;2023-04-24T07:45:07;14.50;90.30
36450;DHT22;22475;51.390;7.180;2023-04-24T07:47:34;14.50;90.40
36450;DHT22;22475;51.390;7.180;2023-04-24T07:50:02;14.50;90.50
36450;DHT22;22475;51.390;7.180;2023-04-24T07:52:28;14.50;90.50
36450;DHT22;22475;51.390;7.180;2023-04-24T07:54:56;14.50;90.50
36450;DHT22;22475;51.390;7.180;2023-04-24T07:57:27;14.50;90.50
36450;DHT22;22475;51.390;7.180;2023-04-24T07:59:53;14.40;90.40
36450;DHT22;22475;51.390;7.180;2023-04-24T08:02:20;14.50;90.40
36450;DHT22;22475;51.390;7.180;2023-04-24T08:04:51;14.50;90.50
36450;DHT22;22475;51.390;7.180;2023-04-24T08:07:18;14.50;90.50
36450;DHT22;22475;51.390;7.180;2023-04-24T08:09:45;14.50;90.60
36450;DHT22;22475;51.390;7.180;2023-04-24T08:12:12;14.50;90.60
36450;DHT22;22475;51.390;7.180;2023-04-24T08:14:40;14.50;90.60
36450;DHT22;22475;51.390;7.180;2023-04-24T08:17:06;14.50;90.60
36450;DHT22;22475;51.390;7.180;2023-04-24T08:19:33;14.50;90.60
36450;DHT22;22475;51.390;7.180;2023-04-24T08:22:00;14.50;90.60
36450;DHT22;22475;51.390;7.180;2023-04-24T08:24:27;14.50;90.60
36450;DHT22;22475;51.390;7.180;2023-04-24T08:26:53;14.50;90.60
36450;DHT22;22475;51.390;7.180;2023-04-24T08:29:22;14.50;90.60
36450;DHT22;22475;51.390;7.180;2023-04-24T08:31:50;14.50;90.50
36450;DHT22;22475;51.390;7.180;2023-04-24T08:34:17;14.50;90.50
36450;DHT22;22475;51.390;7.180;2023-04-24T08:36:43;14.50;90.50
36450;DHT22;22475;51.390;7.180;2023-04-24T08:39:10;14.50;90.50
36450;DHT22;22475;51.390;7.180;2023-04-24T08:41:37;14.40;90.50
36450;DHT22;22475;51.390;7.180;2023-04-24T08:44:04;14.40;90.50
36450;DHT22;22475;51.390;7.180;2023-04-24T08:46:33;14.40;90.50
36450;DHT22;22475;51.390;7.180;2023-04-24T08:49:01;14.40;90.50
36450;DHT22;22475;51.390;7.180;2023-04-24T08:51:29;14.40;90.50
36450;DHT22;22475;51.390;7.180;2023-04-24T08:53:57;14.40;90.50
36450;DHT22;22475;51.390;7.180;2023-04-24T08:56:25;14.30;90.40
36450;DHT22;22475;51.390;7.180;2023-04-24T08:58:53;14.40;90.40
36450;DHT22;22475;51.390;7.180;2023-04-24T09:01:21;14.40;90.40
36450;DHT22;22475;51.390;7.180;2023-04-24T09:03:49;14.30;90.40
36450;DHT22;22475;51.390;7.180;2023-04-24T09:06:17;14.30;90.50
36450;DHT22;22475;51.390;7.180;2023-04-24T09:08:45;14.30;90.50
36450;DHT22;22475;51.390;7.180;2023-04-24T09:11:13;14.30;90.50
36450;DHT22;22475;51.390;7.180;2023-04-24T09:13:40;14.30;90.50
36450;DHT22;22475;51.390;7.180;2023-04-24T09:16:07;14.30;90.50
36450;DHT22;22475;51.390;7.180;2023-04-24T09:18:34;14.30;90.60
36450;DHT22;22475;51.390;7.180;2023-04-24T09:21:03;14.30;90.60
36450;DHT22;22475;51.390;7.180;2023-04-24T09:23:32;14.20;90.60
36450;DHT22;22475;51.390;7.180;2023-04-24T09:26:00;14.30;90.60
36450;DHT22;22475;51.390;7.180;2023-04-24T09:28:30;14.30;90.70
36450;DHT22;22475;51.390;7.180;2023-04-24T09:31:08;14.20;90.70
36450;DHT22;22475;51.390;7.180;2023-04-24T09:33:36;14.20;90.70
36450;DHT22;22475;51.390;7.180;2023-04-24T09:36:03;14.30;90.80
36450;DHT22;22475;51.390;7.180;2023-04-24T09:38:35;14.20;90.90
36450;DHT22;22475;51.390;7.180;2023-04-24T09:41:04;14.30;90.90
36450;DHT22;22475;51.390;7.180;2023-04-24T09:43:31;14.30;91.00
36450;DHT22;22475;51.390;7.180;2023-04-24T09:46:00;14.30;90.90
36450;DHT22;22475;51.390;7.180;2023-04-24T09:48:31;14.30;90.90
36450;DHT22;22475;51.390;7.180;2023-04-24T09:50:58;14.30;90.90
36450;DHT22;22475;51.390;7.180;2023-04-24T09:53:25;14.30;90.90
36450;DHT22;22475;51.390;7.180;2023-04-24T09:55:53;14.30;90.90
36450;DHT22;22475;51.390;7.180;2023-04-24T09:58:25;14.30;90.90
36450;DHT22;22475;51.390;7.180;2023-04-24T10:00:53;14.20;90.80
36450;DHT22;22475;51.390;7.180;2023-04-24T10:03:21;14.20;90.80
36450;DHT22;22475;51.390;7.180;2023-04-24T10:05:52;14.20;90.70
36450;DHT22;22475;51.390;7.180;2023-04-24T10:08:19;14.20;90.80
36450;DHT22;22475;51.390;7.180;2023-04-24T10:10:46;14.20;90.80
36450;DHT22;22475;51.390;7.180;2023-04-24T10:13:15;14.20;90.80
36450;DHT22;22475;51.390;7.180;2023-04-24T10:15:42;14.20;90.70
36450;DHT22;22475;51.390;7.180;2023-04-24T10:18:09;14.20;90.70
36450;DHT22;22475;51.390;7.180;2023-04-24T10:20:38;14.10;90.70
36450;DHT22;22475;51.390;7.180;2023-04-24T10:23:05;14.20;90.80
36450;DHT22;22475;51.390;7.180;2023-04-24T10:25:33;14.10;90.80
36450;DHT22;22475;51.390;7.180;2023-04-24T10:28:01;14.10;90.80
36450;DHT22;22475;51.390;7.180;2023-04-24T10:30:31;14.10;90.80
36450;DHT22;22475;51.390;7.180;2023-04-24T10:33:00;14.10;90.90
36450;DHT22;22475;51.390;7.180;2023-04-24T10:35:30;14.10;90.90
36450;DHT22;22475;51.390;7.180;2023-04-24T10:37:59;14.10;91.00
36450;DHT22;22475;51.390;7.180;2023-04-24T10:40:30;14.10;91.00
36450;DHT22;22475;51.390;7.180;2023-04-24T10:42:57;14.10;91.10
36450;DHT22;22475;51.390;7.180;2023-04-24T10:45:24;14.10;91.00
36450;DHT22;22475;51.390;7.180;2023-04-24T10:47:57;14.10;91.00
36450;DHT22;22475;51.390;7.180;2023-04-24T10:50:26;14.10;91.10
36450;DHT22;22475;51.390;7.180;2023-04-24T10:52:53;14.10;91.10
36450;DHT22;22475;51.390;7.180;2023-04-24T10:55:46;14.00;91.00
36450;DHT22;22475;51.390;7.180;2023-04-24T10:58:13;14.00;91.10
36450;DHT22;22475;51.390;7.180;2023-04-24T11:00:41;14.10;91.50
36450;DHT22;22475;51.390;7.180;2023-04-24T11:03:25;14.10;91.10
36450;DHT22;22475;51.390;7.180;2023-04-24T11:05:56;14.10;91.10
36450;DHT22;22475;51.390;7.180;2023-04-24T11:08:27;14.10;91.10
36450;DHT22;22475;51.390;7.180;2023-04-24T11:11:04;14.10;91.10
36450;DHT22;22475;51.390;7.180;2023-04-24T11:14:03;14.10;91.20
36450;DHT22;22475;51.390;7.180;2023-04-24T11:16:33;14.10;91.20
36450;DHT22;22475;51.390;7.180;2023-04-24T11:19:03;14.10;91.20
36450;DHT22;22475;51.390;7.180;2023-04-24T11:21:39;14.10;91.30
36450;DHT22;22475;51.390;7.180;2023-04-24T11:24:30;14.10;91.40
36450;DHT22;22475;51.390;7.180;2023-04-24T11:26:59;14.10;91.40
36450;DHT22;22475;51.390;7.180;2023-04-24T11:29:44;14.10;91.40
36450;DHT22;22475;51.390;7.180;2023-04-24T11:32:34;14.20;91.40
36450;DHT22;22475;51.390;7.180;2023-04-24T11:35:04;14.10;91.30
36450;DHT22;22475;51.390;7.180;2023-04-24T11:37:35;14.20;91.40
36450;DHT22;22475;51.390;7.180;2023-04-24T11:40:03;14.20;91.40
36450;DHT22;22475;51.390;7.180;2023-04-24T11:42:34;14.20;91.50
36450;DHT22;22475;51.390;7.180;2023-04-24T11:45:01;14.20;91.50
36450;DHT22;22475;51.390;7.180;2023-04-24T11:47:29;14.20;91.50
36450;DHT22;22475;51.390;7.180;2023-04-24T11:49:56;14.20;91.50
36450;DHT22;22475;51.390;7.180;2023-04-24T11:52:24;14.30;91.50
36450;DHT22;22475;51.390;7.180;2023-04-24T11:54:51;14.30;91.40
36450;DHT22;22475;51.390;7.180;2023-04-24T11:57:19;14.30;91.40
36450;DHT22;22475;51.390;7.180;2023-04-24T11:59:46;14.30;91.40
36450;DHT22;22475;51.390;7.180;2023-04-24T12:02:20;14.30;91.30
36450;DHT22;22475;51.390;7.180;2023-04-24T12:04:48;14.30;91.30
36450;DHT22;22475;51.390;7.180;2023-04-24T12:07:14;14.30;91.30
36450;DHT22;22475;51.390;7.180;2023-04-24T12:09:43;14.30;91.30
36450;DHT22;22475;51.390;7.180;2023-04-24T12:12:11;14.30;91.30
36450;DHT22;22475;51.390;7.180;2023-04-24T12:14:48;14.30;91.30
36450;DHT22;22475;51.390;7.180;2023-04-24T12:17:16;14.30;91.20
36450;DHT22;22475;51.390;7.180;2023-04-24T12:19:48;14.30;91.20
36450;DHT22;22475;51.390;7.180;2023-04-24T12:22:16;14.30;91.20
36450;DHT22;22475;51.390;7.180;2023-04-24T12:25:00;14.30;91.30
36450;DHT22;22475;51.390;7.180;2023-04-24T12:27:30;14.30;91.30
36450;DHT22;22475;51.390;7.180;2023-04-24T12:29:58;14.30;91.30
36450;DHT22;22475;51.390;7.180;2023-04-24T12:32:25;14.30;91.30
36450;DHT22;22475;51.390;7.180;2023-04-24T12:34:52;14.30;91.20
36450;DHT22;22475;51.390;7.180;2023-04-24T12:37:20;14.30;91.20
36450;DHT22;22475;51.390;7.180;2023-04-24T12:40:02;14.30;91.10
36450;DHT22;22475;51.390;7.180;2023-04-24T12:42:30;14.30;91.00
36450;DHT22;22475;51.390;7.180;2023-04-24T12:44:58;14.30;91.00
36450;DHT22;22475;51.390;7.180;2023-04-24T12:47:26;14.30;91.10
36450;DHT22;22475;51.390;7.180;2023-04-24T12:49:53;14.30;91.00
36450;DHT22;22475;51.390;7.180;2023-04-24T12:52:21;14.30;91.10
36450;DHT22;22475;51.390;7.180;2023-04-24T12:54:49;14.30;91.00
36450;DHT22;22475;51.390;7.180;2023-04-24T12:57:17;14.30;90.90
36450;DHT22;22475;51.390;7.180;2023-04-24T12:59:44;14.30;90.90
36450;DHT22;22475;51.390;7.180;2023-04-24T13:02:11;14.30;90.90
36450;DHT22;22475;51.390;7.180;2023-04-24T13:04:38;14.30;90.90
36450;DHT22;22475;51.390;7.180;2023-04-24T13:07:05;14.30;90.90
36450;DHT22;22475;51.390;7.180;2023-04-24T13:09:34;14.30;90.90
36450;DHT22;22475;51.390;7.180;2023-04-24T13:12:01;14.30;91.10
36450;DHT22;22475;51.390;7.180;2023-04-24T13:14:29;14.30;90.70
36450;DHT22;22475;51.390;7.180;2023-04-24T13:16:56;14.30;90.70
36450;DHT22;22475;51.390;7.180;2023-04-24T13:19:24;14.30;90.60
36450;DHT22;22475;51.390;7.180;2023-04-24T13:21:51;14.30;90.50
36450;DHT22;22475;51.390;7.180;2023-04-24T13:24:18;14.30;90.50
36450;DHT22;22475;51.390;7.180;2023-04-24T13:26:45;14.30;90.40
36450;DHT22;22475;51.390;7.180;2023-04-24T13:29:12;14.30;90.40
36450;DHT22;22475;51.390;7.180;2023-04-24T13:31:40;14.30;90.40
36450;DHT22;22475;51.390;7.180;2023-04-24T13:34:06;14.30;90.40
36450;DHT22;22475;51.390;7.180;2023-04-24T13:36:33;14.30;90.40
36450;DHT22;22475;51.390;7.180;2023-04-24T13:39:00;14.40;90.30
36450;DHT22;22475;51.390;7.180;2023-04-24T13:41:28;14.30;90.20
36450;DHT22;22475;51.390;7.180;2023-04-24T13:43:55;14.30;90.10
36450;DHT22;22475;51.390;7.180;2023-04-24T13:46:22;14.30;90.10
36450;DHT22;22475;51.390;7.180;2023-04-24T13:48:50;14.30;90.30
36450;DHT22;22475;51.390;7.180;2023-04-24T13:51:18;14.30;90.30
36450;DHT22;22475;51.390;7.180;2023-04-24T13:53:44;14.30;90.30
36450;DHT22;22475;51.390;7.180;2023-04-24T13:56:11;14.30;90.30
36450;DHT22;22475;51.390;7.180;2023-04-24T13:58:39;14.30;90.20
36450;DHT22;22475;51.390;7.180;2023-04-24T14:01:06;14.30;90.20
36450;DHT22;22475;51.390;7.180;2023-04-24T14:03:33;14.30;90.10
36450;DHT22;22475;51.390;7.180;2023-04-24T14:06:01;14.30;90.10
36450;DHT22;22475;51.390;7.180;2023-04-24T14:08:28;14.30;90.10
36450;DHT22;22475;51.390;7.180;2023-04-24T14:10:54;14.30;90.00
36450;DHT22;22475;51.390;7.180;2023-04-24T14:13:21;14.30;90.00
36450;DHT22;22475;51.390;7.180;2023-04-24T14:15:48;14.30;90.00
36450;DHT22;22475;51.390;7.180;2023-04-24T14:18:15;14.30;89.80
36450;DHT22;22475;51.390;7.180;2023-04-24T14:20:42;14.30;89.80
36450;DHT22;22475;51.390;7.180;2023-04-24T14:23:11;14.30;89.90
36450;DHT22;22475;51.390;7.180;2023-04-24T14:25:37;14.30;89.80
36450;DHT22;22475;51.390;7.180;2023-04-24T14:28:05;14.40;89.90
36450;DHT22;22475;51.390;7.180;2023-04-24T14:30:32;14.30;89.80
36450;DHT22;22475;51.390;7.180;2023-04-24T14:32:59;14.40;89.80
36450;DHT22;22475;51.390;7.180;2023-04-24T14:35:26;14.40;89.80
36450;DHT22;22475;51.390;7.180;2023-04-24T14:37:54;14.40;90.00
36450;DHT22;22475;51.390;7.180;2023-04-24T14:40:22;14.40;90.00
36450;DHT22;22475;51.390;7.180;2023-04-24T14:42:49;14.40;89.80
36450;DHT22;22475;51.390;7.180;2023-04-24T14:45:16;14.40;89.80
36450;DHT22;22475;51.390;7.180;2023-04-24T14:47:42;14.40;89.80
36450;DHT22;22475;51.390;7.180;2023-04-24T14:50:09;14.40;89.70
36450;DHT22;22475;51.390;7.180;2023-04-24T14:52:37;14.40;89.60
36450;DHT22;22475;51.390;7.180;2023-04-24T14:55:05;14.40;89.50
36450;DHT22;22475;51.390;7.180;2023-04-24T14:57:33;14.40;89.30
36450;DHT22;22475;51.390;7.180;2023-04-24T15:00:01;14.50;89.30
36450;DHT22;22475;51.390;7.180;2023-04-24T15:02:29;14.50;89.00
36450;DHT22;22475;51.390;7.180;2023-04-24T15:04:55;14.40;88.90
36450;DHT22;22475;51.390;7.180;2023-04-24T15:07:22;14.40;88.90
36450;DHT22;22475;51.390;7.180;2023-04-24T15:09:49;14.50;88.90
36450;DHT22;22475;51.390;7.180;2023-04-24T15:12:16;14.40;88.80
36450;DHT22;22475;51.390;7.180;2023-04-24T15:14:44;14.40;88.70
36450;DHT22;22475;51.390;7.180;2023-04-24T15:17:10;14.40;88.60
36450;DHT22;22475;51.390;7.180;2023-04-24T15:19:37;14.40;88.40
36450;DHT22;22475;51.390;7.180;2023-04-24T15:22:04;14.40;88.10
36450;DHT22;22475;51.390;7.180;2023-04-24T15:24:31;14.40;88.10
36450;DHT22;22475;51.390;7.180;2023-04-24T15:26:58;14.40;88.30
36450;DHT22;22475;51.390;7.180;2023-04-24T15:29:27;14.40;88.40
36450;DHT22;22475;51.390;7.180;2023-04-24T15:31:55;14.40;88.30
36450;DHT22;22475;51.390;7.180;2023-04-24T15:34:22;14.40;88.20